sensor_id;sensor_type;location;lat;lon;timestamp;P1;durP1;ratioP1;P2;durP2;ratioP2
31282;SDS011;17915;52.540;13.604;2023-05-21T00:01:03;16.75;;;12.38;;
31282;SDS011;17915;52.540;13.604;2023-05-21T00:03:31;19.70;;;14.45;;
31282;SDS011;17915;52.540;13.604;2023-05-21T00:05:57;14.32;;;12.82;;
31282;SDS011;17915;52.540;13.604;2023-05-21T00:08:25;18.63;;;13.13;;
31282;SDS011;17915;52.540;13.604;2023-05-21T00:10:50;18.50;;;13.53;;
31282;SDS011;17915;52.540;13.604;2023-05-21T00:13:16;20.77;;;15.03;;
31282;SDS011;17915;52.540;13.604;2023-05-21T00:15:41;20.43;;;13.53;;
31282;SDS011;17915;52.540;13.604;2023-05-21T00:18:07;16.90;;;14.30;;
31282;SDS011;17915;52.540;13.604;2023-05-21T00:20:32;19.67;;;13.97;;
31282;SDS011;17915;52.540;13.604;2023-05-21T00:22:58;16.10;;;13.27;;
31282;SDS011;17915;52.540;13.604;2023-05-21T00:25:23;15.85;;;13.07;;
31282;SDS011;17915;52.540;13.604;2023-05-21T00:27:49;22.90;;;14.10;;
31282;SDS011;17915;52.540;13.604;2023-05-21T00:30:14;18.33;;;14.77;;
31282;SDS011;17915;52.540;13.604;2023-05-21T00:32:40;21.20;;;12.88;;
31282;SDS011;17915;52.540;13.604;2023-05-21T00:35:06;21.37;;;14.30;;
31282;SDS011;17915;52.540;13.604;2023-05-21T00:37:32;20.75;;;16.15;;
31282;SDS011;17915;52.540;13.604;2023-05-21T00:39:59;16.88;;;14.32;;
31282;SDS011;17915;52.540;13.604;2023-05-21T00:42:30;16.58;;;14.20;;
31282;SDS011;17915;52.540;13.604;2023-05-21T00:44:55;17.87;;;13.50;;
31282;SDS011;17915;52.540;13.604;2023-05-21T00:47:21;32.40;;;17.17;;
31282;SDS011;17915;52.540;13.604;2023-05-21T00:49:47;19.93;;;14.13;;
31282;SDS011;17915;52.540;13.604;2023-05-21T00:52:15;22.92;;;15.65;;
31282;SDS011;17915;52.540;13.604;2023-05-21T00:54:44;29.35;;;16.25;;
31282;SDS011;17915;52.540;13.604;2023-05-21T00:57:10;18.45;;;16.10;;
31282;SDS011;17915;52.540;13.604;2023-05-21T00:59:36;24.13;;;18.73;;
31282;SDS011;17915;52.540;13.604;2023-05-21T01:02:01;21.00;;;16.20;;
31282;SDS011;17915;52.540;13.604;2023-05-21T01:04:29;22.67;;;15.50;;
31282;SDS011;17915;52.540;13.604;2023-05-21T01:06:55;22.00;;;15.48;;
31282;SDS011;17915;52.540;13.604;2023-05-21T01:09:22;21.20;;;14.45;;
31282;SDS011;17915;52.540;13.604;2023-05-21T01:11:49;16.70;;;14.90;;
31282;SDS011;17915;52.540;13.604;2023-05-21T01:14:15;26.80;;;17.60;;
31282;SDS011;17915;52.540;13.604;2023-05-21T01:16:43;23.67;;;16.20;;
31282;SDS011;17915;52.540;13.604;2023-05-21T01:19:16;25.17;;;16.95;;
31282;SDS011;17915;52.540;13.604;2023-05-21T01:21:50;32.97;;;16.98;;
31282;SDS011;17915;52.540;13.604;2023-05-21T01:24:16;21.20;;;16.48;;
31282;SDS011;17915;52.540;13.604;2023-05-21T01:26:42;25.77;;;17.70;;
31282;SDS011;17915;52.540;13.604;2023-05-21T01:29:10;26.83;;;17.63;;
31282;SDS011;17915;52.540;13.604;2023-05-21T01:34:20;25.67;;;18.30;;
31282;SDS011;17915;52.540;13.604;2023-05-21T01:36:48;24.45;;;15.90;;
31282;SDS011;17915;52.540;13.604;2023-05-21T01:39:22;25.23;;;15.73;;
31282;SDS011;17915;52.540;13.604;2023-05-21T01:41:48;23.20;;;18.70;;
31282;SDS011;17915;52.540;13.604;2023-05-21T01:44:14;23.73;;;16.25;;
31282;SDS011;17915;52.540;13.604;2023-05-21T01:46:41;23.17;;;19.92;;
31282;SDS011;17915;52.540;13.604;2023-05-21T01:49:06;22.97;;;17.17;;
31282;SDS011;17915;52.540;13.604;2023-05-21T01:51:32;24.93;;;17.83;;
31282;SDS011;17915;52.540;13.604;2023-05-21T01:53:58;30.50;;;18.63;;
31282;SDS011;17915;52.540;13.604;2023-05-21T01:56:23;25.93;;;19.07;;
31282;SDS011;17915;52.540;13.604;2023-05-21T01:58:49;25.02;;;18.58;;
31282;SDS011;17915;52.540;13.604;2023-05-21T02:01:15;27.27;;;18.92;;
31282;SDS011;17915;52.540;13.604;2023-05-21T02:03:41;23.87;;;18.77;;
31282;SDS011;17915;52.540;13.604;2023-05-21T02:06:06;35.97;;;19.57;;
31282;SDS011;17915;52.540;13.604;2023-05-21T02:08:31;29.13;;;19.90;;
31282;SDS011;17915;52.540;13.604;2023-05-21T02:10:57;25.53;;;18.23;;
31282;SDS011;17915;52.540;13.604;2023-05-21T02:13:22;25.30;;;19.60;;
31282;SDS011;17915;52.540;13.604;2023-05-21T02:15:48;29.52;;;20.00;;
31282;SDS011;17915;52.540;13.604;2023-05-21T02:20:41;37.90;;;20.95;;
31282;SDS011;17915;52.540;13.604;2023-05-21T02:23:07;30.42;;;21.10;;
31282;SDS011;17915;52.540;13.604;2023-05-21T02:25:33;29.40;;;19.60;;
31282;SDS011;17915;52.540;13.604;2023-05-21T02:27:58;37.57;;;22.07;;
31282;SDS011;17915;52.540;13.604;2023-05-21T02:30:25;31.60;;;22.83;;
31282;SDS011;17915;52.540;13.604;2023-05-21T02:32:50;32.40;;;22.37;;
31282;SDS011;17915;52.540;13.604;2023-05-21T02:35:16;32.13;;;22.37;;
31282;SDS011;17915;52.540;13.604;2023-05-21T02:37:41;27.37;;;20.97;;
31282;SDS011;17915;52.540;13.604;2023-05-21T02:40:08;32.95;;;20.85;;
31282;SDS011;17915;52.540;13.604;2023-05-21T02:42:37;29.65;;;23.10;;
31282;SDS011;17915;52.540;13.604;2023-05-21T02:45:06;32.35;;;24.05;;
31282;SDS011;17915;52.540;13.604;2023-05-21T02:47:32;30.60;;;22.48;;
31282;SDS011;17915;52.540;13.604;2023-05-21T02:49:58;32.43;;;23.00;;
31282;SDS011;17915;52.540;13.604;2023-05-21T02:52:24;32.53;;;23.13;;
31282;SDS011;17915;52.540;13.604;2023-05-21T02:54:50;33.90;;;23.57;;
31282;SDS011;17915;52.540;13.604;2023-05-21T02:57:15;31.55;;;23.15;;
31282;SDS011;17915;52.540;13.604;2023-05-21T02:59:42;38.53;;;23.48;;
31282;SDS011;17915;52.540;13.604;2023-05-21T03:02:08;31.40;;;23.05;;
31282;SDS011;17915;52.540;13.604;2023-05-21T03:04:33;31.97;;;22.43;;
31282;SDS011;17915;52.540;13.604;2023-05-21T03:07:02;30.98;;;22.55;;
31282;SDS011;17915;52.540;13.604;2023-05-21T03:09:28;31.23;;;24.00;;
31282;SDS011;17915;52.540;13.604;2023-05-21T03:11:53;33.57;;;23.33;;
31282;SDS011;17915;52.540;13.604;2023-05-21T03:14:19;34.87;;;24.27;;
31282;SDS011;17915;52.540;13.604;2023-05-21T03:16:44;35.50;;;26.00;;
31282;SDS011;17915;52.540;13.604;2023-05-21T03:19:10;45.27;;;25.23;;
31282;SDS011;17915;52.540;13.604;2023-05-21T03:21:36;35.17;;;23.45;;
31282;SDS011;17915;52.540;13.604;2023-05-21T03:24:03;31.47;;;23.07;;
31282;SDS011;17915;52.540;13.604;2023-05-21T03:26:29;41.72;;;26.02;;
31282;SDS011;17915;52.540;13.604;2023-05-21T03:28:55;36.92;;;24.65;;
31282;SDS011;17915;52.540;13.604;2023-05-21T03:31:21;31.63;;;23.17;;
31282;SDS011;17915;52.540;13.604;2023-05-21T03:33:50;30.42;;;23.20;;
31282;SDS011;17915;52.540;13.604;2023-05-21T03:36:16;33.65;;;24.40;;
31282;SDS011;17915;52.540;13.604;2023-05-21T03:38:42;35.57;;;23.77;;
31282;SDS011;17915;52.540;13.604;2023-05-21T03:41:07;33.77;;;23.80;;
31282;SDS011;17915;52.540;13.604;2023-05-21T03:43:33;37.03;;;23.65;;
31282;SDS011;17915;52.540;13.604;2023-05-21T03:45:58;31.47;;;20.03;;
31282;SDS011;17915;52.540;13.604;2023-05-21T03:48:24;29.10;;;20.97;;
31282;SDS011;17915;52.540;13.604;2023-05-21T03:50:49;27.17;;;19.80;;
31282;SDS011;17915;52.540;13.604;2023-05-21T03:53:15;34.17;;;23.93;;
31282;SDS011;17915;52.540;13.604;2023-05-21T03:55:41;27.87;;;21.80;;
31282;SDS011;17915;52.540;13.604;2023-05-21T03:58:06;24.53;;;18.80;;
31282;SDS011;17915;52.540;13.604;2023-05-21T04:00:33;28.25;;;20.98;;
31282;SDS011;17915;52.540;13.604;2023-05-21T04:03:01;31.75;;;19.92;;
31282;SDS011;17915;52.540;13.604;2023-05-21T04:05:27;24.02;;;18.70;;
31282;SDS011;17915;52.540;13.604;2023-05-21T04:07:52;29.30;;;20.53;;
31282;SDS011;17915;52.540;13.604;2023-05-21T04:10:18;30.80;;;22.23;;
31282;SDS011;17915;52.540;13.604;2023-05-21T04:12:43;21.07;;;18.47;;
31282;SDS011;17915;52.540;13.604;2023-05-21T04:15:09;30.50;;;19.53;;
31282;SDS011;17915;52.540;13.604;2023-05-21T04:17:34;29.55;;;19.38;;
31282;SDS011;17915;52.540;13.604;2023-05-21T04:20:00;30.07;;;20.03;;
31282;SDS011;17915;52.540;13.604;2023-05-21T04:22:25;29.43;;;20.13;;
31282;SDS011;17915;52.540;13.604;2023-05-21T04:24:51;26.67;;;18.23;;
31282;SDS011;17915;52.540;13.604;2023-05-21T04:27:20;27.27;;;19.50;;
31282;SDS011;17915;52.540;13.604;2023-05-21T04:29:48;25.65;;;18.67;;
31282;SDS011;17915;52.540;13.604;2023-05-21T04:32:14;21.83;;;17.02;;
31282;SDS011;17915;52.540;13.604;2023-05-21T04:34:41;27.85;;;17.92;;
31282;SDS011;17915;52.540;13.604;2023-05-21T04:37:07;23.33;;;16.67;;
31282;SDS011;17915;52.540;13.604;2023-05-21T04:39:33;30.42;;;17.10;;
31282;SDS011;17915;52.540;13.604;2023-05-21T04:41:58;24.23;;;15.47;;
31282;SDS011;17915;52.540;13.604;2023-05-21T04:44:27;21.90;;;16.38;;
31282;SDS011;17915;52.540;13.604;2023-05-21T04:46:52;21.60;;;15.60;;
31282;SDS011;17915;52.540;13.604;2023-05-21T04:49:18;18.95;;;15.20;;
31282;SDS011;17915;52.540;13.604;2023-05-21T04:51:45;18.83;;;16.52;;
31282;SDS011;17915;52.540;13.604;2023-05-21T04:54:10;22.73;;;16.57;;
31282;SDS011;17915;52.540;13.604;2023-05-21T04:56:36;18.57;;;14.83;;
31282;SDS011;17915;52.540;13.604;2023-05-21T04:59:01;24.43;;;14.43;;
31282;SDS011;17915;52.540;13.604;2023-05-21T05:01:28;20.33;;;15.15;;
31282;SDS011;17915;52.540;13.604;2023-05-21T05:03:53;16.90;;;13.87;;
31282;SDS011;17915;52.540;13.604;2023-05-21T05:06:19;18.17;;;15.33;;
31282;SDS011;17915;52.540;13.604;2023-05-21T05:08:45;28.42;;;17.08;;
31282;SDS011;17915;52.540;13.604;2023-05-21T05:11:11;18.70;;;15.33;;
31282;SDS011;17915;52.540;13.604;2023-05-21T05:13:38;24.92;;;16.92;;
31282;SDS011;17915;52.540;13.604;2023-05-21T05:16:04;23.98;;;17.02;;
31282;SDS011;17915;52.540;13.604;2023-05-21T05:18:30;27.57;;;17.90;;
31282;SDS011;17915;52.540;13.604;2023-05-21T05:20:55;20.17;;;17.23;;
31282;SDS011;17915;52.540;13.604;2023-05-21T05:23:21;23.80;;;17.67;;
31282;SDS011;17915;52.540;13.604;2023-05-21T05:25:46;18.60;;;16.27;;
31282;SDS011;17915;52.540;13.604;2023-05-21T05:28:11;27.87;;;17.40;;
31282;SDS011;17915;52.540;13.604;2023-05-21T05:30:37;24.07;;;18.80;;
31282;SDS011;17915;52.540;13.604;2023-05-21T05:33:02;22.63;;;17.20;;
31282;SDS011;17915;52.540;13.604;2023-05-21T05:35:28;26.77;;;17.37;;
31282;SDS011;17915;52.540;13.604;2023-05-21T05:37:53;24.77;;;17.60;;
31282;SDS011;17915;52.540;13.604;2023-05-21T05:40:18;21.33;;;16.47;;
31282;SDS011;17915;52.540;13.604;2023-05-21T05:42:44;24.77;;;19.87;;
31282;SDS011;17915;52.540;13.604;2023-05-21T05:45:10;24.85;;;18.67;;
31282;SDS011;17915;52.540;13.604;2023-05-21T05:47:35;19.73;;;16.43;;
31282;SDS011;17915;52.540;13.604;2023-05-21T05:50:01;21.90;;;16.63;;
31282;SDS011;17915;52.540;13.604;2023-05-21T05:52:26;21.77;;;16.73;;
31282;SDS011;17915;52.540;13.604;2023-05-21T05:54:51;22.80;;;16.10;;
31282;SDS011;17915;52.540;13.604;2023-05-21T05:57:17;21.00;;;15.50;;
31282;SDS011;17915;52.540;13.604;2023-05-21T05:59:42;21.90;;;15.63;;
31282;SDS011;17915;52.540;13.604;2023-05-21T06:02:07;19.60;;;16.17;;
31282;SDS011;17915;52.540;13.604;2023-05-21T06:04:33;17.17;;;14.33;;
31282;SDS011;17915;52.540;13.604;2023-05-21T06:06:58;22.73;;;16.20;;
31282;SDS011;17915;52.540;13.604;2023-05-21T06:09:24;18.98;;;15.32;;
31282;SDS011;17915;52.540;13.604;2023-05-21T06:11:50;15.67;;;14.17;;
31282;SDS011;17915;52.540;13.604;2023-05-21T06:14:15;23.93;;;15.13;;
31282;SDS011;17915;52.540;13.604;2023-05-21T06:16:41;17.67;;;15.80;;
31282;SDS011;17915;52.540;13.604;2023-05-21T06:19:06;19.00;;;14.40;;
31282;SDS011;17915;52.540;13.604;2023-05-21T06:21:31;16.63;;;14.33;;
31282;SDS011;17915;52.540;13.604;2023-05-21T06:23:57;16.00;;;14.33;;
31282;SDS011;17915;52.540;13.604;2023-05-21T06:26:22;18.87;;;14.00;;
31282;SDS011;17915;52.540;13.604;2023-05-21T06:28:48;20.30;;;14.93;;
31282;SDS011;17915;52.540;13.604;2023-05-21T06:31:13;15.65;;;14.05;;
31282;SDS011;17915;52.540;13.604;2023-05-21T06:33:40;17.80;;;14.82;;
31282;SDS011;17915;52.540;13.604;2023-05-21T06:36:05;18.77;;;15.15;;
31282;SDS011;17915;52.540;13.604;2023-05-21T06:38:31;21.00;;;14.70;;
31282;SDS011;17915;52.540;13.604;2023-05-21T06:40:56;20.37;;;13.87;;
31282;SDS011;17915;52.540;13.604;2023-05-21T06:43:22;18.15;;;15.38;;
31282;SDS011;17915;52.540;13.604;2023-05-21T06:45:48;15.55;;;13.93;;
31282;SDS011;17915;52.540;13.604;2023-05-21T06:48:13;18.23;;;14.83;;
31282;SDS011;17915;52.540;13.604;2023-05-21T06:50:40;19.63;;;14.48;;
31282;SDS011;17915;52.540;13.604;2023-05-21T06:53:06;17.17;;;15.35;;
31282;SDS011;17915;52.540;13.604;2023-05-21T06:55:32;17.60;;;14.87;;
31282;SDS011;17915;52.540;13.604;2023-05-21T06:57:57;16.60;;;14.87;;
31282;SDS011;17915;52.540;13.604;2023-05-21T07:00:23;17.10;;;13.05;;
31282;SDS011;17915;52.540;13.604;2023-05-21T07:02:48;15.27;;;12.60;;
31282;SDS011;17915;52.540;13.604;2023-05-21T07:05:13;16.53;;;14.77;;
31282;SDS011;17915;52.540;13.604;2023-05-21T07:07:39;20.00;;;14.27;;
31282;SDS011;17915;52.540;13.604;2023-05-21T07:10:04;17.70;;;13.80;;
31282;SDS011;17915;52.540;13.604;2023-05-21T07:12:30;15.95;;;14.18;;
31282;SDS011;17915;52.540;13.604;2023-05-21T07:14:55;18.27;;;15.10;;
31282;SDS011;17915;52.540;13.604;2023-05-21T07:17:21;15.80;;;14.13;;
31282;SDS011;17915;52.540;13.604;2023-05-21T07:19:46;17.13;;;14.17;;
31282;SDS011;17915;52.540;13.604;2023-05-21T07:22:11;15.10;;;13.57;;
31282;SDS011;17915;52.540;13.604;2023-05-21T07:24:37;15.20;;;13.70;;
31282;SDS011;17915;52.540;13.604;2023-05-21T07:27:02;18.53;;;13.03;;
31282;SDS011;17915;52.540;13.604;2023-05-21T07:29:28;20.52;;;14.32;;
31282;SDS011;17915;52.540;13.604;2023-05-21T07:31:53;16.07;;;12.73;;
31282;SDS011;17915;52.540;13.604;2023-05-21T07:34:19;18.37;;;14.10;;
31282;SDS011;17915;52.540;13.604;2023-05-21T07:36:45;18.58;;;12.73;;
31282;SDS011;17915;52.540;13.604;2023-05-21T07:39:11;18.27;;;13.17;;
31282;SDS011;17915;52.540;13.604;2023-05-21T07:41:36;16.97;;;12.07;;
31282;SDS011;17915;52.540;13.604;2023-05-21T07:44:01;16.23;;;12.53;;
31282;SDS011;17915;52.540;13.604;2023-05-21T07:46:27;14.93;;;12.57;;
31282;SDS011;17915;52.540;13.604;2023-05-21T07:48:52;12.43;;;11.13;;
31282;SDS011;17915;52.540;13.604;2023-05-21T07:51:17;15.97;;;11.80;;
31282;SDS011;17915;52.540;13.604;2023-05-21T07:53:43;15.23;;;12.60;;
31282;SDS011;17915;52.540;13.604;2023-05-21T07:56:08;13.17;;;11.87;;
31282;SDS011;17915;52.540;13.604;2023-05-21T07:58:34;16.23;;;12.63;;
31282;SDS011;17915;52.540;13.604;2023-05-21T08:01:00;12.93;;;11.60;;
31282;SDS011;17915;52.540;13.604;2023-05-21T08:03:25;18.70;;;13.87;;
31282;SDS011;17915;52.540;13.604;2023-05-21T08:05:54;12.20;;;11.02;;
31282;SDS011;17915;52.540;13.604;2023-05-21T08:08:20;16.80;;;11.80;;
31282;SDS011;17915;52.540;13.604;2023-05-21T08:10:46;14.00;;;11.63;;
31282;SDS011;17915;52.540;13.604;2023-05-21T08:13:11;13.25;;;10.57;;
31282;SDS011;17915;52.540;13.604;2023-05-21T08:15:37;14.77;;;11.15;;
31282;SDS011;17915;52.540;13.604;2023-05-21T08:18:03;12.13;;;10.77;;
31282;SDS011;17915;52.540;13.604;2023-05-21T08:20:28;14.18;;;10.43;;
31282;SDS011;17915;52.540;13.604;2023-05-21T08:25:20;15.00;;;10.63;;
31282;SDS011;17915;52.540;13.604;2023-05-21T08:27:46;11.93;;;9.63;;
31282;SDS011;17915;52.540;13.604;2023-05-21T08:30:11;10.93;;;9.82;;
31282;SDS011;17915;52.540;13.604;2023-05-21T08:32:37;13.65;;;11.30;;
31282;SDS011;17915;52.540;13.604;2023-05-21T08:35:02;13.07;;;11.27;;
31282;SDS011;17915;52.540;13.604;2023-05-21T08:37:28;15.40;;;11.13;;
31282;SDS011;17915;52.540;13.604;2023-05-21T08:39:53;15.23;;;10.40;;
31282;SDS011;17915;52.540;13.604;2023-05-21T08:44:58;12.95;;;9.48;;
31282;SDS011;17915;52.540;13.604;2023-05-21T08:47:25;11.13;;;10.02;;
31282;SDS011;17915;52.540;13.604;2023-05-21T08:49:54;10.90;;;9.20;;
31282;SDS011;17915;52.540;13.604;2023-05-21T08:52:20;12.00;;;9.10;;
31282;SDS011;17915;52.540;13.604;2023-05-21T08:54:45;9.70;;;8.80;;
31282;SDS011;17915;52.540;13.604;2023-05-21T08:57:11;10.60;;;9.60;;
31282;SDS011;17915;52.540;13.604;2023-05-21T08:59:37;13.90;;;9.50;;
31282;SDS011;17915;52.540;13.604;2023-05-21T09:02:08;13.57;;;10.60;;
31282;SDS011;17915;52.540;13.604;2023-05-21T09:04:36;13.32;;;9.05;;
31282;SDS011;17915;52.540;13.604;2023-05-21T09:07:03;9.55;;;8.57;;
31282;SDS011;17915;52.540;13.604;2023-05-21T09:09:32;9.40;;;8.43;;
31282;SDS011;17915;52.540;13.604;2023-05-21T09:11:58;10.30;;;7.90;;
31282;SDS011;17915;52.540;13.604;2023-05-21T09:14:25;11.68;;;9.45;;
31282;SDS011;17915;52.540;13.604;2023-05-21T09:16:51;17.92;;;8.90;;
31282;SDS011;17915;52.540;13.604;2023-05-21T09:19:18;11.87;;;9.80;;
31282;SDS011;17915;52.540;13.604;2023-05-21T09:21:45;9.00;;;8.30;;
31282;SDS011;17915;52.540;13.604;2023-05-21T09:24:10;9.57;;;8.67;;
31282;SDS011;17915;52.540;13.604;2023-05-21T09:26:35;9.00;;;8.17;;
31282;SDS011;17915;52.540;13.604;2023-05-21T09:29:01;15.00;;;8.32;;
31282;SDS011;17915;52.540;13.604;2023-05-21T09:31:27;10.20;;;9.17;;
31282;SDS011;17915;52.540;13.604;2023-05-21T09:33:53;12.45;;;8.10;;
31282;SDS011;17915;52.540;13.604;2023-05-21T09:36:22;9.93;;;8.43;;
31282;SDS011;17915;52.540;13.604;2023-05-21T09:38:48;13.10;;;9.60;;
31282;SDS011;17915;52.540;13.604;2023-05-21T09:41:16;9.80;;;8.73;;
31282;SDS011;17915;52.540;13.604;2023-05-21T09:43:42;9.18;;;8.20;;
31282;SDS011;17915;52.540;13.604;2023-05-21T09:46:10;8.35;;;7.55;;
31282;SDS011;17915;52.540;13.604;2023-05-21T09:48:39;8.23;;;7.53;;
31282;SDS011;17915;52.540;13.604;2023-05-21T09:53:35;10.18;;;8.32;;
31282;SDS011;17915;52.540;13.604;2023-05-21T09:56:01;10.88;;;8.50;;
31282;SDS011;17915;52.540;13.604;2023-05-21T09:58:27;8.63;;;7.38;;
31282;SDS011;17915;52.540;13.604;2023-05-21T10:00:53;21.90;;;8.03;;
31282;SDS011;17915;52.540;13.604;2023-05-21T10:03:18;8.70;;;7.87;;
31282;SDS011;17915;52.540;13.604;2023-05-21T10:05:47;10.15;;;9.05;;
31282;SDS011;17915;52.540;13.604;2023-05-21T10:08:13;11.43;;;8.23;;
31282;SDS011;17915;52.540;13.604;2023-05-21T10:10:41;8.90;;;8.20;;
31282;SDS011;17915;52.540;13.604;2023-05-21T10:13:07;17.00;;;8.23;;
31282;SDS011;17915;52.540;13.604;2023-05-21T10:15:35;8.77;;;7.97;;
31282;SDS011;17915;52.540;13.604;2023-05-21T10:18:02;8.75;;;7.82;;
31282;SDS011;17915;52.540;13.604;2023-05-21T10:20:28;12.63;;;9.45;;
31282;SDS011;17915;52.540;13.604;2023-05-21T10:22:54;7.95;;;7.15;;
31282;SDS011;17915;52.540;13.604;2023-05-21T10:25:19;7.53;;;6.80;;
31282;SDS011;17915;52.540;13.604;2023-05-21T10:27:46;8.07;;;7.28;;
31282;SDS011;17915;52.540;13.604;2023-05-21T10:30:12;10.50;;;7.95;;
31282;SDS011;17915;52.540;13.604;2023-05-21T10:32:38;7.60;;;6.85;;
31282;SDS011;17915;52.540;13.604;2023-05-21T10:35:05;8.73;;;7.88;;
31282;SDS011;17915;52.540;13.604;2023-05-21T10:39:56;8.10;;;7.07;;
31282;SDS011;17915;52.540;13.604;2023-05-21T10:45:13;8.25;;;6.55;;
31282;SDS011;17915;52.540;13.604;2023-05-21T10:56:24;11.32;;;8.07;;
31282;SDS011;17915;52.540;13.604;2023-05-21T11:01:27;9.10;;;6.40;;
31282;SDS011;17915;52.540;13.604;2023-05-21T11:03:53;7.20;;;5.80;;
31282;SDS011;17915;52.540;13.604;2023-05-21T11:06:26;6.45;;;5.82;;
31282;SDS011;17915;52.540;13.604;2023-05-21T11:08:52;6.68;;;6.13;;
31282;SDS011;17915;52.540;13.604;2023-05-21T11:17:42;5.70;;;5.20;;
31282;SDS011;17915;52.540;13.604;2023-05-21T11:20:05;5.97;;;5.25;;
31282;SDS011;17915;52.540;13.604;2023-05-21T11:22:32;8.40;;;6.28;;
31282;SDS011;17915;52.540;13.604;2023-05-21T11:24:59;7.20;;;6.68;;
31282;SDS011;17915;52.540;13.604;2023-05-21T11:27:41;6.43;;;5.65;;
31282;SDS011;17915;52.540;13.604;2023-05-21T11:30:07;8.18;;;5.97;;
31282;SDS011;17915;52.540;13.604;2023-05-21T11:32:36;10.05;;;5.65;;
31282;SDS011;17915;52.540;13.604;2023-05-21T11:35:03;9.00;;;5.72;;
31282;SDS011;17915;52.540;13.604;2023-05-21T11:37:30;7.05;;;5.50;;
31282;SDS011;17915;52.540;13.604;2023-05-21T11:39:58;9.63;;;5.95;;
31282;SDS011;17915;52.540;13.604;2023-05-21T11:42:40;5.43;;;4.95;;
31282;SDS011;17915;52.540;13.604;2023-05-21T11:45:08;8.13;;;5.55;;
31282;SDS011;17915;52.540;13.604;2023-05-21T11:47:33;9.35;;;5.28;;
31282;SDS011;17915;52.540;13.604;2023-05-21T11:50:00;6.55;;;6.05;;
31282;SDS011;17915;52.540;13.604;2023-05-21T11:52:29;6.32;;;5.05;;
31282;SDS011;17915;52.540;13.604;2023-05-21T11:54:55;5.72;;;5.22;;
31282;SDS011;17915;52.540;13.604;2023-05-21T11:59:49;9.88;;;6.75;;
31282;SDS011;17915;52.540;13.604;2023-05-21T12:02:18;9.18;;;4.70;;
31282;SDS011;17915;52.540;13.604;2023-05-21T12:04:46;5.05;;;4.65;;
31282;SDS011;17915;52.540;13.604;2023-05-21T12:07:14;6.13;;;5.68;;
31282;SDS011;17915;52.540;13.604;2023-05-21T12:12:08;7.07;;;5.97;;
31282;SDS011;17915;52.540;13.604;2023-05-21T12:14:37;6.07;;;5.22;;
31282;SDS011;17915;52.540;13.604;2023-05-21T12:17:03;9.20;;;5.28;;
31282;SDS011;17915;52.540;13.604;2023-05-21T12:19:31;8.30;;;5.32;;
31282;SDS011;17915;52.540;13.604;2023-05-21T12:21:59;7.57;;;5.30;;
31282;SDS011;17915;52.540;13.604;2023-05-21T12:24:26;7.53;;;5.45;;
31282;SDS011;17915;52.540;13.604;2023-05-21T12:26:51;7.70;;;5.35;;
31282;SDS011;17915;52.540;13.604;2023-05-21T12:29:16;5.57;;;5.17;;
31282;SDS011;17915;52.540;13.604;2023-05-21T12:31:46;6.93;;;6.35;;
31282;SDS011;17915;52.540;13.604;2023-05-21T12:34:13;6.60;;;5.88;;
31282;SDS011;17915;52.540;13.604;2023-05-21T12:36:39;6.15;;;5.75;;
31282;SDS011;17915;52.540;13.604;2023-05-21T12:39:10;7.03;;;5.57;;
31282;SDS011;17915;52.540;13.604;2023-05-21T12:41:36;13.80;;;5.95;;
31282;SDS011;17915;52.540;13.604;2023-05-21T12:44:01;9.57;;;5.65;;
31282;SDS011;17915;52.540;13.604;2023-05-21T12:46:28;11.60;;;5.95;;
31282;SDS011;17915;52.540;13.604;2023-05-21T12:48:54;9.85;;;6.40;;
31282;SDS011;17915;52.540;13.604;2023-05-21T12:51:20;11.60;;;5.40;;
31282;SDS011;17915;52.540;13.604;2023-05-21T12:53:45;6.75;;;6.25;;
31282;SDS011;17915;52.540;13.604;2023-05-21T12:56:11;5.88;;;5.47;;
31282;SDS011;17915;52.540;13.604;2023-05-21T12:58:38;5.90;;;5.40;;
31282;SDS011;17915;52.540;13.604;2023-05-21T13:01:07;8.05;;;5.20;;
31282;SDS011;17915;52.540;13.604;2023-05-21T13:03:34;5.68;;;5.13;;
31282;SDS011;17915;52.540;13.604;2023-05-21T13:06:00;8.48;;;5.53;;
31282;SDS011;17915;52.540;13.604;2023-05-21T13:08:26;10.90;;;6.45;;
31282;SDS011;17915;52.540;13.604;2023-05-21T13:10:52;6.20;;;5.25;;
31282;SDS011;17915;52.540;13.604;2023-05-21T13:13:17;6.73;;;5.13;;
31282;SDS011;17915;52.540;13.604;2023-05-21T13:15:42;5.57;;;5.10;;
31282;SDS011;17915;52.540;13.604;2023-05-21T13:18:08;13.80;;;5.53;;
31282;SDS011;17915;52.540;13.604;2023-05-21T13:20:33;6.10;;;5.18;;
31282;SDS011;17915;52.540;13.604;2023-05-21T13:23:00;9.02;;;5.88;;
31282;SDS011;17915;52.540;13.604;2023-05-21T13:25:25;7.67;;;5.57;;
31282;SDS011;17915;52.540;13.604;2023-05-21T13:27:54;5.82;;;5.43;;
31282;SDS011;17915;52.540;13.604;2023-05-21T13:30:20;5.50;;;4.82;;
31282;SDS011;17915;52.540;13.604;2023-05-21T13:32:46;4.97;;;4.57;;
31282;SDS011;17915;52.540;13.604;2023-05-21T13:35:11;11.02;;;5.05;;
31282;SDS011;17915;52.540;13.604;2023-05-21T13:37:37;8.93;;;6.03;;
31282;SDS011;17915;52.540;13.604;2023-05-21T13:40:04;9.77;;;5.65;;
31282;SDS011;17915;52.540;13.604;2023-05-21T13:42:31;10.82;;;5.05;;
31282;SDS011;17915;52.540;13.604;2023-05-21T13:44:57;8.60;;;5.72;;
31282;SDS011;17915;52.540;13.604;2023-05-21T13:47:22;4.90;;;4.53;;
31282;SDS011;17915;52.540;13.604;2023-05-21T13:49:48;5.45;;;5.00;;
31282;SDS011;17915;52.540;13.604;2023-05-21T13:52:13;8.70;;;5.63;;
31282;SDS011;17915;52.540;13.604;2023-05-21T13:54:39;6.13;;;5.63;;
31282;SDS011;17915;52.540;13.604;2023-05-21T13:57:06;7.75;;;5.57;;
31282;SDS011;17915;52.540;13.604;2023-05-21T13:59:31;10.97;;;5.90;;
31282;SDS011;17915;52.540;13.604;2023-05-21T14:01:57;10.30;;;5.38;;
31282;SDS011;17915;52.540;13.604;2023-05-21T14:04:22;7.05;;;4.50;;
31282;SDS011;17915;52.540;13.604;2023-05-21T14:06:48;6.47;;;5.05;;
31282;SDS011;17915;52.540;13.604;2023-05-21T14:09:13;5.47;;;5.05;;
31282;SDS011;17915;52.540;13.604;2023-05-21T14:11:39;6.07;;;5.50;;
31282;SDS011;17915;52.540;13.604;2023-05-21T14:14:05;12.35;;;4.32;;
31282;SDS011;17915;52.540;13.604;2023-05-21T14:16:31;5.65;;;5.20;;
31282;SDS011;17915;52.540;13.604;2023-05-21T14:18:56;7.60;;;4.65;;
31282;SDS011;17915;52.540;13.604;2023-05-21T14:21:22;8.70;;;5.03;;
31282;SDS011;17915;52.540;13.604;2023-05-21T14:26:13;5.68;;;5.18;;
31282;SDS011;17915;52.540;13.604;2023-05-21T14:31:05;9.15;;;4.82;;
31282;SDS011;17915;52.540;13.604;2023-05-21T14:33:30;4.80;;;4.50;;
31282;SDS011;17915;52.540;13.604;2023-05-21T14:38:22;5.35;;;4.85;;
31282;SDS011;17915;52.540;13.604;2023-05-21T14:40:47;8.15;;;5.82;;
31282;SDS011;17915;52.540;13.604;2023-05-21T14:43:13;5.90;;;5.33;;
31282;SDS011;17915;52.540;13.604;2023-05-21T14:45:38;6.45;;;4.93;;
31282;SDS011;17915;52.540;13.604;2023-05-21T14:48:04;5.72;;;4.00;;
31282;SDS011;17915;52.540;13.604;2023-05-21T14:50:35;4.97;;;4.20;;
31282;SDS011;17915;52.540;13.604;2023-05-21T14:53:06;8.73;;;4.80;;
31282;SDS011;17915;52.540;13.604;2023-05-21T14:55:32;5.07;;;4.30;;
31282;SDS011;17915;52.540;13.604;2023-05-21T14:57:59;8.43;;;5.78;;
31282;SDS011;17915;52.540;13.604;2023-05-21T15:03:15;5.10;;;4.30;;